Terminal Aerodrome Forecast
Issued by NWS Tampa Bay Area, FL

Home | Current Version | Previous Version | Text Only | Print | Product List | Glossary On
Versions: 1 2 3 4 5 6 7 8 9 10 11 12 13 14
000
FTUS42 KTBW 181100
TAFSRQ
TAF
KSRQ 181120Z 1812/1912 VRB04KT P6SM FEW020 FEW250
     FM181500 04005KT P6SM SCT035 SCT150
     FM181700 31007KT P6SM VCTS SCT040CB BKN150
     FM190100 VRB04KT P6SM SCT040 BKN250
     FM190600 VRB04KT P6SM VCSH SCT030 BKN100=

USA.gov is the U.S. government's official web portal to all federal, state and local government web resources and services.